Time,TemperatureF,DewpointF,PressureIn,WindDirection,WindDirectionDegrees,WindSpeedMPH,WindSpeedGustMPH,Humidity,HourlyPrecipIn,Conditions,Clouds,dailyrainin,SolarRadiationWatts/m^2,SoftwareType,DateUTC
2013-01-09 00:14:00,37.2,30.0,30.06,South,174,4.0,10.0,75,0.00,,,0.00,0,weatherlink.com 1.10,2013-01-09 05:14:00,
2013-01-09 00:29:00,37.0,30.0,30.07,South,187,4.0,8.0,76,0.00,,,0.00,0,weatherlink.com 1.10,2013-01-09 05:29:00,
2013-01-09 00:44:00,37.1,30.0,30.06,South,191,6.0,13.0,76,0.00,,,0.00,0,weatherlink.com 1.10,2013-01-09 05:44:00,
2013-01-09 00:59:00,37.8,31.0,30.05,South,179,6.0,11.0,76,0.00,,,0.00,0,weatherlink.com 1.10,2013-01-09 05:59:00,
2013-01-09 01:14:00,38.7,31.0,30.04,SSW,195,7.0,12.0,75,0.00,,,0.00,0,weatherlink.com 1.10,2013-01-09 06:14:00,
2013-01-09 01:29:00,39.2,32.0,30.04,SW,221,4.0,15.0,74,0.00,,,0.00,0,weatherlink.com 1.10,2013-01-09 06:29:00,
2013-01-09 01:44:00,39.4,32.0,30.04,South,174,5.0,14.0,74,0.00,,,0.00,0,weatherlink.com 1.10,2013-01-09 06:44:00,
2013-01-09 01:59:00,40.1,32.0,30.04,SW,220,8.0,15.0,74,0.00,,,0.00,0,weatherlink.com 1.10,2013-01-09 06:59:00,
2013-01-09 02:14:00,40.5,32.0,30.04,South,175,2.0,16.0,73,0.00,,,0.00,0,weatherlink.com 1.10,2013-01-09 07:14:00,
2013-01-09 02:29:00,40.8,33.0,30.04,WSW,251,5.0,16.0,73,0.00,,,0.00,0,weatherlink.com 1.10,2013-01-09 07:29:00,
2013-01-09 02:44:00,40.8,33.0,30.03,SSW,212,11.0,16.0,73,0.00,,,0.00,0,weatherlink.com 1.10,2013-01-09 07:44:00,
2013-01-09 02:59:00,41.0,33.0,30.04,SSW,205,7.0,21.0,73,0.00,,,0.00,0,weatherlink.com 1.10,2013-01-09 07:59:00,
2013-01-09 03:14:00,41.1,33.0,30.04,West,267,6.0,18.0,74,0.00,,,0.00,0,weatherlink.com 1.10,2013-01-09 08:14:00,
2013-01-09 03:29:00,41.2,34.0,30.04,WSW,246,14.0,15.0,74,0.00,,,0.00,0,weatherlink.com 1.10,2013-01-09 08:29:00,
2013-01-09 03:44:00,41.6,34.0,30.05,WSW,258,9.0,16.0,74,0.00,,,0.00,0,weatherlink.com 1.10,2013-01-09 08:44:00,
2013-01-09 03:59:00,41.8,34.0,30.04,WSW,243,11.0,17.0,74,0.00,,,0.00,0,weatherlink.com 1.10,2013-01-09 08:59:00,
2013-01-09 04:14:00,42.2,34.0,30.05,SSW,200,8.0,20.0,74,0.00,,,0.00,0,weatherlink.com 1.10,2013-01-09 09:14:00,
2013-01-09 04:29:00,42.2,35.0,30.04,SW,218,10.0,21.0,75,0.00,,,0.00,0,weatherlink.com 1.10,2013-01-09 09:29:00,
2013-01-09 04:44:00,41.7,35.0,30.04,SSW,212,7.0,16.0,76,0.00,,,0.00,0,weatherlink.com 1.10,2013-01-09 09:44:00,
2013-01-09 04:59:00,41.1,35.0,30.04,SW,234,7.0,18.0,78,0.00,,,0.00,0,weatherlink.com 1.10,2013-01-09 09:59:00,
2013-01-09 05:14:00,40.8,35.0,30.05,WSW,237,11.0,14.0,79,0.00,,,0.00,0,weatherlink.com 1.10,2013-01-09 10:14:00,
2013-01-09 05:29:00,41.2,35.0,30.05,SW,229,15.0,20.0,79,0.00,,,0.00,0,weatherlink.com 1.10,2013-01-09 10:29:00,
2013-01-09 05:44:00,41.4,35.0,30.04,SW,231,12.0,21.0,78,0.00,,,0.00,0,weatherlink.com 1.10,2013-01-09 10:44:00,
2013-01-09 06:00:00,41.4,35.0,30.06,WSW,248,11.0,22.0,78,0.00,,,0.00,0,weatherlink.com 1.10,2013-01-09 11:00:00,
2013-01-09 06:15:00,41.3,35.0,30.07,WSW,247,11.0,21.0,79,0.00,,,0.00,0,weatherlink.com 1.10,2013-01-09 11:15:00,
2013-01-09 06:30:00,40.8,35.0,30.06,WSW,248,11.0,20.0,80,0.00,,,0.00,0,weatherlink.com 1.10,2013-01-09 11:30:00,
2013-01-09 06:45:00,40.4,35.0,30.07,WSW,254,8.0,18.0,80,0.00,,,0.00,0,weatherlink.com 1.10,2013-01-09 11:45:00,
2013-01-09 07:00:00,40.1,35.0,30.08,SW,224,13.0,20.0,81,0.00,,,0.00,0,weatherlink.com 1.10,2013-01-09 12:00:00,
2013-01-09 07:15:00,39.6,34.0,30.09,SW,233,10.0,14.0,81,0.00,,,0.00,0,weatherlink.com 1.10,2013-01-09 12:15:00,
2013-01-09 07:30:00,39.3,34.0,30.10,West,268,6.0,18.0,82,0.00,,,0.00,0,weatherlink.com 1.10,2013-01-09 12:30:00,
2013-01-09 07:45:00,38.9,34.0,30.11,WSW,244,6.0,14.0,82,0.00,,,0.00,0,weatherlink.com 1.10,2013-01-09 12:45:00,
2013-01-09 08:00:00,38.7,34.0,30.12,West,264,9.0,15.0,82,0.00,,,0.00,0,weatherlink.com 1.10,2013-01-09 13:00:00,
2013-01-09 08:15:00,38.3,33.0,30.13,WSW,246,9.0,14.0,82,0.00,,,0.00,5,weatherlink.com 1.10,2013-01-09 13:15:00,
2013-01-09 08:30:00,38.0,33.0,30.14,WSW,253,10.0,14.0,83,0.00,,,0.00,16,weatherlink.com 1.10,2013-01-09 13:30:00,
2013-01-09 08:45:00,38.1,33.0,30.15,West,276,6.0,14.0,82,0.00,,,0.00,30,weatherlink.com 1.10,2013-01-09 13:45:00,
2013-01-09 09:00:00,38.4,33.0,30.17,WSW,254,7.0,14.0,81,0.00,,,0.00,60,weatherlink.com 1.10,2013-01-09 14:00:00,
2013-01-09 09:15:00,38.5,33.0,30.17,SW,230,10.0,15.0,80,0.00,,,0.00,98,weatherlink.com 1.10,2013-01-09 14:15:00,
2013-01-09 09:30:00,38.6,33.0,30.18,WNW,296,5.0,18.0,79,0.00,,,0.00,144,weatherlink.com 1.10,2013-01-09 14:30:00,
2013-01-09 09:45:00,38.8,33.0,30.18,West,266,2.0,15.0,79,0.00,,,0.00,186,weatherlink.com 1.10,2013-01-09 14:45:00,
2013-01-09 10:00:00,38.9,33.0,30.19,West,278,5.0,15.0,78,0.00,,,0.00,237,weatherlink.com 1.10,2013-01-09 15:00:00,
2013-01-09 10:16:00,39.3,33.0,30.20,West,272,6.0,10.0,77,0.00,,,0.00,274,weatherlink.com 1.10,2013-01-09 15:16:00,
2013-01-09 10:31:00,39.6,33.0,30.20,West,279,3.0,15.0,76,0.00,,,0.00,309,weatherlink.com 1.10,2013-01-09 15:31:00,
2013-01-09 10:46:00,39.9,33.0,30.20,West,260,8.0,15.0,75,0.00,,,0.00,339,weatherlink.com 1.10,2013-01-09 15:46:00,
2013-01-09 11:01:00,40.7,33.0,30.21,WSW,258,4.0,10.0,74,0.00,,,0.00,371,weatherlink.com 1.10,2013-01-09 16:01:00,
2013-01-09 11:16:00,41.1,33.0,30.21,WSW,241,10.0,12.0,72,0.00,,,0.00,397,weatherlink.com 1.10,2013-01-09 16:16:00,
2013-01-09 11:31:00,41.6,33.0,30.21,WSW,242,3.0,12.0,71,0.00,,,0.00,422,weatherlink.com 1.10,2013-01-09 16:31:00,
2013-01-09 11:46:00,41.9,33.0,30.21,WSW,253,11.0,13.0,71,0.00,,,0.00,443,weatherlink.com 1.10,2013-01-09 16:46:00,
2013-01-09 12:01:00,42.4,33.0,30.21,SW,228,7.0,10.0,70,0.00,,,0.00,459,weatherlink.com 1.10,2013-01-09 17:01:00,
2013-01-09 12:31:00,42.7,34.0,30.20,WSW,252,5.0,16.0,70,0.00,,,0.00,487,weatherlink.com 1.10,2013-01-09 17:31:00,
2013-01-09 12:46:00,43.0,33.0,30.19,WSW,255,5.0,12.0,69,0.00,,,0.00,489,weatherlink.com 1.10,2013-01-09 17:46:00,
2013-01-09 13:01:00,43.6,34.0,30.20,WSW,247,4.0,12.0,68,0.00,,,0.00,503,weatherlink.com 1.10,2013-01-09 18:01:00,
2013-01-09 13:16:00,44.5,34.0,30.21,West,278,7.0,12.0,66,0.00,,,0.00,452,weatherlink.com 1.10,2013-01-09 18:16:00,
2013-01-09 13:31:00,45.6,34.0,30.21,West,267,4.0,10.0,64,0.00,,,0.00,506,weatherlink.com 1.10,2013-01-09 18:31:00,
2013-01-09 13:46:00,46.0,33.0,30.21,WNW,284,4.0,14.0,62,0.00,,,0.00,476,weatherlink.com 1.10,2013-01-09 18:46:00,
2013-01-09 14:01:00,45.5,33.0,30.21,West,268,10.0,15.0,62,0.00,,,0.00,330,weatherlink.com 1.10,2013-01-09 19:01:00,
2013-01-09 14:16:00,45.6,33.0,30.21,West,262,10.0,19.0,62,0.00,,,0.00,454,weatherlink.com 1.10,2013-01-09 19:16:00,
2013-01-09 14:31:00,45.9,33.0,30.22,WSW,258,6.0,14.0,62,0.00,,,0.00,388,weatherlink.com 1.10,2013-01-09 19:31:00,
2013-01-09 14:46:00,46.0,33.0,30.22,WSW,254,9.0,15.0,61,0.00,,,0.00,352,weatherlink.com 1.10,2013-01-09 19:46:00,
2013-01-09 15:01:00,46.3,33.0,30.23,West,280,2.0,13.0,60,0.00,,,0.00,209,weatherlink.com 1.10,2013-01-09 20:01:00,
2013-01-09 15:16:00,46.9,33.0,30.24,West,268,2.0,15.0,59,0.00,,,0.00,323,weatherlink.com 1.10,2013-01-09 20:16:00,
2013-01-09 15:31:00,47.4,33.0,30.26,West,268,2.0,10.0,58,0.00,,,0.00,299,weatherlink.com 1.10,2013-01-09 20:31:00,
2013-01-09 15:47:00,47.9,32.0,30.26,WSW,253,6.0,12.0,55,0.00,,,0.00,297,weatherlink.com 1.10,2013-01-09 20:47:00,
2013-01-09 16:02:00,48.5,32.0,30.27,WSW,256,7.0,12.0,53,0.00,,,0.00,257,weatherlink.com 1.10,2013-01-09 21:02:00,
2013-01-09 16:17:00,48.5,31.0,30.27,WNW,286,7.0,14.0,52,0.00,,,0.00,211,weatherlink.com 1.10,2013-01-09 21:17:00,
2013-01-09 16:32:00,48.3,31.0,30.28,West,270,10.0,13.0,51,0.00,,,0.00,162,weatherlink.com 1.10,2013-01-09 21:32:00,
2013-01-09 16:47:00,48.1,31.0,30.28,West,266,10.0,13.0,51,0.00,,,0.00,90,weatherlink.com 1.10,2013-01-09 21:47:00,
2013-01-09 17:02:00,47.8,27.0,30.29,West,268,9.0,14.0,45,0.00,,,0.00,47,weatherlink.com 1.10,2013-01-09 22:02:00,
2013-01-09 17:17:00,47.0,26.0,30.29,WNW,297,4.0,14.0,44,0.00,,,0.00,21,weatherlink.com 1.10,2013-01-09 22:17:00,
2013-01-09 17:32:00,46.1,25.0,30.30,NW,312,11.0,20.0,43,0.00,,,0.00,5,weatherlink.com 1.10,2013-01-09 22:32:00,
2013-01-09 17:47:00,45.2,24.0,30.30,West,278,3.0,10.0,44,0.00,,,0.00,0,weatherlink.com 1.10,2013-01-09 22:47:00,
2013-01-09 18:02:00,44.1,24.0,30.31,WNW,297,5.0,7.0,46,0.00,,,0.00,0,weatherlink.com 1.10,2013-01-09 23:02:00,
2013-01-09 18:17:00,43.4,25.0,30.33,West,266,1.0,5.0,48,0.00,,,0.00,0,weatherlink.com 1.10,2013-01-09 23:17:00,
2013-01-09 18:32:00,42.7,24.0,30.33,NW,307,5.0,5.0,48,0.00,,,0.00,0,weatherlink.com 1.10,2013-01-09 23:32:00,
2013-01-09 18:47:00,42.9,23.0,30.34,West,280,4.0,8.0,45,0.00,,,0.00,0,weatherlink.com 1.10,2013-01-09 23:47:00,
2013-01-09 19:02:00,42.4,22.0,30.34,WNW,291,5.0,8.0,45,0.00,,,0.00,0,weatherlink.com 1.10,2013-01-10 00:02:00,
2013-01-09 19:17:00,41.9,22.0,30.35,West,261,1.0,7.0,45,0.00,,,0.00,0,weatherlink.com 1.10,2013-01-10 00:17:00,
2013-01-09 19:32:00,41.3,22.0,30.34,WNW,287,4.0,7.0,46,0.00,,,0.00,0,weatherlink.com 1.10,2013-01-10 00:32:00,
2013-01-09 19:47:00,40.9,21.0,30.35,NW,320,4.0,6.0,46,0.00,,,0.00,0,weatherlink.com 1.10,2013-01-10 00:47:00,
2013-01-09 20:02:00,40.4,21.0,30.35,WNW,284,4.0,7.0,47,0.00,,,0.00,0,weatherlink.com 1.10,2013-01-10 01:02:00,
2013-01-09 20:17:00,40.1,21.0,30.35,NW,314,1.0,6.0,47,0.00,,,0.00,0,weatherlink.com 1.10,2013-01-10 01:17:00,
2013-01-09 20:32:00,39.6,21.0,30.35,NW,310,3.0,9.0,48,0.00,,,0.00,0,weatherlink.com 1.10,2013-01-10 01:32:00,
2013-01-09 20:47:00,39.3,21.0,30.36,NW,305,0.0,5.0,49,0.00,,,0.00,0,weatherlink.com 1.10,2013-01-10 01:47:00,
2013-01-09 21:02:00,38.6,22.0,30.36,NW,305,2.0,4.0,51,0.00,,,0.00,0,weatherlink.com 1.10,2013-01-10 02:02:00,
2013-01-09 21:17:00,37.8,22.0,30.37,NW,305,2.0,4.0,54,0.00,,,0.00,0,weatherlink.com 1.10,2013-01-10 02:17:00,
2013-01-09 21:32:00,36.8,22.0,30.37,NW,305,1.0,3.0,56,0.00,,,0.00,0,weatherlink.com 1.10,2013-01-10 02:32:00,
2013-01-09 21:47:00,35.6,22.0,30.38,NW,305,0.0,2.0,58,0.00,,,0.00,0,weatherlink.com 1.10,2013-01-10 02:47:00,
2013-01-09 22:02:00,34.7,22.0,30.38,NW,305,3.0,3.0,60,0.00,,,0.00,0,weatherlink.com 1.10,2013-01-10 03:02:00,
2013-01-09 22:17:00,34.0,22.0,30.38,NW,305,0.0,2.0,63,0.00,,,0.00,0,weatherlink.com 1.10,2013-01-10 03:17:00,
2013-01-09 22:32:00,33.5,22.0,30.39,NW,305,0.0,0.0,64,0.00,,,0.00,0,weatherlink.com 1.10,2013-01-10 03:32:00,
2013-01-09 22:48:00,33.2,22.0,30.39,NW,305,0.0,2.0,64,0.00,,,0.00,0,weatherlink.com 1.10,2013-01-10 03:48:00,
2013-01-09 23:03:00,32.8,22.0,30.40,NW,305,0.0,1.0,65,0.00,,,0.00,0,weatherlink.com 1.10,2013-01-10 04:03:00,
2013-01-09 23:18:00,32.5,24.0,30.40,NW,305,0.0,0.0,71,0.00,,,0.00,0,weatherlink.com 1.10,2013-01-10 04:18:00,
2013-01-09 23:48:00,31.5,23.0,30.42,NW,305,0.0,2.0,70,0.00,,,0.00,0,weatherlink.com 1.10,2013-01-10 04:48:00,